sensor_id;sensor_type;location;lat;lon;timestamp;P1;durP1;ratioP1;P2;durP2;ratioP2
52866;SDS011;38739;53.324;6.862;2023-12-20T00:00:57;18.20;;;2.50;;
52866;SDS011;38739;53.324;6.862;2023-12-20T00:03:22;19.08;;;2.47;;
52866;SDS011;38739;53.324;6.862;2023-12-20T00:05:49;15.35;;;2.63;;
52866;SDS011;38739;53.324;6.862;2023-12-20T00:08:14;21.45;;;2.90;;
52866;SDS011;38739;53.324;6.862;2023-12-20T00:10:40;15.43;;;2.53;;
52866;SDS011;38739;53.324;6.862;2023-12-20T00:13:06;19.15;;;2.80;;
52866;SDS011;38739;53.324;6.862;2023-12-20T00:15:33;20.05;;;2.63;;
52866;SDS011;38739;53.324;6.862;2023-12-20T00:17:59;15.40;;;2.35;;
52866;SDS011;38739;53.324;6.862;2023-12-20T00:20:25;16.50;;;2.45;;
52866;SDS011;38739;53.324;6.862;2023-12-20T00:22:52;20.35;;;2.72;;
52866;SDS011;38739;53.324;6.862;2023-12-20T00:25:18;19.25;;;2.70;;
52866;SDS011;38739;53.324;6.862;2023-12-20T00:27:44;23.70;;;2.47;;
52866;SDS011;38739;53.324;6.862;2023-12-20T00:30:10;23.10;;;2.67;;
52866;SDS011;38739;53.324;6.862;2023-12-20T00:32:36;22.85;;;2.65;;
52866;SDS011;38739;53.324;6.862;2023-12-20T00:35:01;18.50;;;2.22;;
52866;SDS011;38739;53.324;6.862;2023-12-20T00:37:27;19.13;;;3.00;;
52866;SDS011;38739;53.324;6.862;2023-12-20T00:39:53;18.00;;;2.35;;
52866;SDS011;38739;53.324;6.862;2023-12-20T00:42:18;20.48;;;2.83;;
52866;SDS011;38739;53.324;6.862;2023-12-20T00:44:44;15.70;;;1.90;;
52866;SDS011;38739;53.324;6.862;2023-12-20T00:47:10;22.00;;;2.75;;
52866;SDS011;38739;53.324;6.862;2023-12-20T00:49:35;22.88;;;3.10;;
52866;SDS011;38739;53.324;6.862;2023-12-20T00:52:01;16.70;;;2.55;;
52866;SDS011;38739;53.324;6.862;2023-12-20T00:54:27;18.73;;;2.45;;
52866;SDS011;38739;53.324;6.862;2023-12-20T00:56:53;20.48;;;2.92;;
52866;SDS011;38739;53.324;6.862;2023-12-20T00:59:19;18.67;;;3.47;;
52866;SDS011;38739;53.324;6.862;2023-12-20T01:01:44;27.48;;;3.20;;
52866;SDS011;38739;53.324;6.862;2023-12-20T01:04:10;23.02;;;2.80;;
52866;SDS011;38739;53.324;6.862;2023-12-20T01:06:36;19.23;;;3.45;;
52866;SDS011;38739;53.324;6.862;2023-12-20T01:09:02;17.92;;;2.88;;
52866;SDS011;38739;53.324;6.862;2023-12-20T01:11:27;23.25;;;3.00;;
52866;SDS011;38739;53.324;6.862;2023-12-20T01:13:53;19.42;;;2.53;;
52866;SDS011;38739;53.324;6.862;2023-12-20T01:16:19;19.50;;;2.40;;
52866;SDS011;38739;53.324;6.862;2023-12-20T01:18:45;19.70;;;3.08;;
52866;SDS011;38739;53.324;6.862;2023-12-20T01:21:10;22.35;;;2.80;;
52866;SDS011;38739;53.324;6.862;2023-12-20T01:23:36;22.65;;;2.80;;
52866;SDS011;38739;53.324;6.862;2023-12-20T01:26:02;17.02;;;2.55;;
52866;SDS011;38739;53.324;6.862;2023-12-20T01:28:29;20.60;;;2.63;;
52866;SDS011;38739;53.324;6.862;2023-12-20T01:30:54;19.08;;;2.63;;
52866;SDS011;38739;53.324;6.862;2023-12-20T01:33:20;17.23;;;2.67;;
52866;SDS011;38739;53.324;6.862;2023-12-20T01:35:46;19.80;;;3.00;;
52866;SDS011;38739;53.324;6.862;2023-12-20T01:38:11;16.92;;;2.95;;
52866;SDS011;38739;53.324;6.862;2023-12-20T01:40:37;26.05;;;2.45;;
52866;SDS011;38739;53.324;6.862;2023-12-20T01:43:09;16.55;;;2.40;;
52866;SDS011;38739;53.324;6.862;2023-12-20T01:45:36;15.02;;;2.50;;
52866;SDS011;38739;53.324;6.862;2023-12-20T01:48:02;13.55;;;2.50;;
52866;SDS011;38739;53.324;6.862;2023-12-20T01:50:30;14.43;;;2.25;;
52866;SDS011;38739;53.324;6.862;2023-12-20T01:52:57;12.30;;;2.45;;
52866;SDS011;38739;53.324;6.862;2023-12-20T01:55:25;17.83;;;2.67;;
52866;SDS011;38739;53.324;6.862;2023-12-20T01:57:54;24.58;;;2.80;;
52866;SDS011;38739;53.324;6.862;2023-12-20T02:00:21;16.65;;;2.72;;
52866;SDS011;38739;53.324;6.862;2023-12-20T02:02:49;16.55;;;2.47;;
52866;SDS011;38739;53.324;6.862;2023-12-20T02:05:17;19.58;;;2.80;;
52866;SDS011;38739;53.324;6.862;2023-12-20T02:07:43;17.60;;;2.80;;
52866;SDS011;38739;53.324;6.862;2023-12-20T02:10:09;20.15;;;3.05;;
52866;SDS011;38739;53.324;6.862;2023-12-20T02:12:34;24.45;;;2.78;;
52866;SDS011;38739;53.324;6.862;2023-12-20T02:15:00;18.90;;;2.85;;
52866;SDS011;38739;53.324;6.862;2023-12-20T02:17:27;16.48;;;2.40;;
52866;SDS011;38739;53.324;6.862;2023-12-20T02:19:54;16.23;;;2.97;;
52866;SDS011;38739;53.324;6.862;2023-12-20T02:22:19;22.70;;;3.67;;
52866;SDS011;38739;53.324;6.862;2023-12-20T02:24:45;19.92;;;2.97;;
52866;SDS011;38739;53.324;6.862;2023-12-20T02:27:11;17.88;;;2.88;;
52866;SDS011;38739;53.324;6.862;2023-12-20T02:29:37;20.52;;;3.72;;
52866;SDS011;38739;53.324;6.862;2023-12-20T02:32:03;22.30;;;3.10;;
52866;SDS011;38739;53.324;6.862;2023-12-20T02:34:28;24.42;;;3.25;;
52866;SDS011;38739;53.324;6.862;2023-12-20T02:36:54;27.33;;;3.40;;
52866;SDS011;38739;53.324;6.862;2023-12-20T02:39:20;21.55;;;3.38;;
52866;SDS011;38739;53.324;6.862;2023-12-20T02:41:47;28.48;;;3.78;;
52866;SDS011;38739;53.324;6.862;2023-12-20T02:44:13;17.10;;;3.38;;
52866;SDS011;38739;53.324;6.862;2023-12-20T02:46:39;17.27;;;2.75;;
52866;SDS011;38739;53.324;6.862;2023-12-20T02:49:05;16.20;;;3.00;;
52866;SDS011;38739;53.324;6.862;2023-12-20T02:51:31;20.70;;;3.05;;
52866;SDS011;38739;53.324;6.862;2023-12-20T02:53:57;21.48;;;2.55;;
52866;SDS011;38739;53.324;6.862;2023-12-20T02:56:22;28.50;;;3.65;;
52866;SDS011;38739;53.324;6.862;2023-12-20T02:58:48;19.13;;;3.33;;
52866;SDS011;38739;53.324;6.862;2023-12-20T03:01:14;20.13;;;2.58;;
52866;SDS011;38739;53.324;6.862;2023-12-20T03:03:39;20.95;;;2.85;;
52866;SDS011;38739;53.324;6.862;2023-12-20T03:06:05;22.85;;;3.33;;
52866;SDS011;38739;53.324;6.862;2023-12-20T03:08:31;26.83;;;3.40;;
52866;SDS011;38739;53.324;6.862;2023-12-20T03:10:58;26.40;;;3.33;;
52866;SDS011;38739;53.324;6.862;2023-12-20T03:13:24;23.25;;;2.88;;
52866;SDS011;38739;53.324;6.862;2023-12-20T03:15:50;25.20;;;3.53;;
52866;SDS011;38739;53.324;6.862;2023-12-20T03:18:15;27.77;;;3.90;;
52866;SDS011;38739;53.324;6.862;2023-12-20T03:20:41;25.52;;;3.92;;
52866;SDS011;38739;53.324;6.862;2023-12-20T03:23:07;24.27;;;3.03;;
52866;SDS011;38739;53.324;6.862;2023-12-20T03:25:33;31.10;;;4.13;;
52866;SDS011;38739;53.324;6.862;2023-12-20T03:27:59;22.80;;;3.30;;
52866;SDS011;38739;53.324;6.862;2023-12-20T03:30:25;24.25;;;3.50;;
52866;SDS011;38739;53.324;6.862;2023-12-20T03:32:51;24.50;;;3.80;;
52866;SDS011;38739;53.324;6.862;2023-12-20T03:35:16;30.65;;;3.70;;
52866;SDS011;38739;53.324;6.862;2023-12-20T03:37:42;31.15;;;4.78;;
52866;SDS011;38739;53.324;6.862;2023-12-20T03:40:08;26.88;;;4.45;;
52866;SDS011;38739;53.324;6.862;2023-12-20T03:42:34;33.22;;;4.40;;
52866;SDS011;38739;53.324;6.862;2023-12-20T03:45:00;25.98;;;3.55;;
52866;SDS011;38739;53.324;6.862;2023-12-20T03:47:25;27.25;;;4.05;;
52866;SDS011;38739;53.324;6.862;2023-12-20T03:49:51;29.40;;;3.55;;
52866;SDS011;38739;53.324;6.862;2023-12-20T03:52:18;24.70;;;3.10;;
52866;SDS011;38739;53.324;6.862;2023-12-20T03:54:43;27.05;;;3.58;;
52866;SDS011;38739;53.324;6.862;2023-12-20T03:57:09;17.88;;;2.33;;
52866;SDS011;38739;53.324;6.862;2023-12-20T03:59:35;15.90;;;2.67;;
52866;SDS011;38739;53.324;6.862;2023-12-20T04:02:02;19.98;;;2.83;;
52866;SDS011;38739;53.324;6.862;2023-12-20T04:04:27;19.23;;;3.08;;
52866;SDS011;38739;53.324;6.862;2023-12-20T04:06:53;23.20;;;3.35;;
52866;SDS011;38739;53.324;6.862;2023-12-20T04:09:19;20.27;;;2.75;;
52866;SDS011;38739;53.324;6.862;2023-12-20T04:11:45;23.25;;;3.05;;
52866;SDS011;38739;53.324;6.862;2023-12-20T04:14:10;26.27;;;3.63;;
52866;SDS011;38739;53.324;6.862;2023-12-20T04:16:36;21.90;;;3.20;;
52866;SDS011;38739;53.324;6.862;2023-12-20T04:19:02;18.48;;;3.22;;
52866;SDS011;38739;53.324;6.862;2023-12-20T04:21:27;23.77;;;4.05;;
52866;SDS011;38739;53.324;6.862;2023-12-20T04:23:53;24.00;;;3.45;;
52866;SDS011;38739;53.324;6.862;2023-12-20T04:26:19;31.17;;;4.10;;
52866;SDS011;38739;53.324;6.862;2023-12-20T04:28:45;25.63;;;4.25;;
52866;SDS011;38739;53.324;6.862;2023-12-20T04:31:10;26.75;;;4.30;;
52866;SDS011;38739;53.324;6.862;2023-12-20T04:33:36;33.13;;;3.83;;
52866;SDS011;38739;53.324;6.862;2023-12-20T04:36:02;35.60;;;4.30;;
52866;SDS011;38739;53.324;6.862;2023-12-20T04:38:28;31.70;;;5.13;;
52866;SDS011;38739;53.324;6.862;2023-12-20T04:40:56;35.58;;;4.95;;
52866;SDS011;38739;53.324;6.862;2023-12-20T04:43:34;39.50;;;4.57;;
52866;SDS011;38739;53.324;6.862;2023-12-20T04:46:00;31.65;;;4.53;;
52866;SDS011;38739;53.324;6.862;2023-12-20T04:48:28;38.42;;;4.32;;
52866;SDS011;38739;53.324;6.862;2023-12-20T04:51:10;32.05;;;4.30;;
52866;SDS011;38739;53.324;6.862;2023-12-20T04:53:36;30.83;;;4.57;;
52866;SDS011;38739;53.324;6.862;2023-12-20T04:56:02;30.63;;;5.20;;
52866;SDS011;38739;53.324;6.862;2023-12-20T04:58:34;30.40;;;4.45;;
52866;SDS011;38739;53.324;6.862;2023-12-20T05:00:59;35.03;;;4.50;;
52866;SDS011;38739;53.324;6.862;2023-12-20T05:03:25;24.55;;;3.80;;
52866;SDS011;38739;53.324;6.862;2023-12-20T05:05:52;31.45;;;4.38;;
52866;SDS011;38739;53.324;6.862;2023-12-20T05:08:17;32.97;;;4.32;;
52866;SDS011;38739;53.324;6.862;2023-12-20T05:10:43;32.05;;;4.10;;
52866;SDS011;38739;53.324;6.862;2023-12-20T05:13:09;34.35;;;4.60;;
52866;SDS011;38739;53.324;6.862;2023-12-20T05:15:34;34.42;;;5.00;;
52866;SDS011;38739;53.324;6.862;2023-12-20T05:18:00;36.42;;;4.13;;
52866;SDS011;38739;53.324;6.862;2023-12-20T05:20:26;24.27;;;4.18;;
52866;SDS011;38739;53.324;6.862;2023-12-20T05:22:51;30.80;;;4.57;;
52866;SDS011;38739;53.324;6.862;2023-12-20T05:25:17;37.38;;;4.65;;
52866;SDS011;38739;53.324;6.862;2023-12-20T05:27:43;37.10;;;4.63;;
52866;SDS011;38739;53.324;6.862;2023-12-20T05:30:09;37.38;;;5.03;;
52866;SDS011;38739;53.324;6.862;2023-12-20T05:32:35;26.55;;;3.83;;
52866;SDS011;38739;53.324;6.862;2023-12-20T05:35:01;27.90;;;4.05;;
52866;SDS011;38739;53.324;6.862;2023-12-20T05:37:28;39.90;;;4.90;;
52866;SDS011;38739;53.324;6.862;2023-12-20T05:39:53;32.22;;;5.10;;
52866;SDS011;38739;53.324;6.862;2023-12-20T05:42:19;32.70;;;3.90;;
52866;SDS011;38739;53.324;6.862;2023-12-20T05:44:45;36.75;;;4.55;;
52866;SDS011;38739;53.324;6.862;2023-12-20T05:47:10;32.28;;;4.22;;
52866;SDS011;38739;53.324;6.862;2023-12-20T05:49:36;37.13;;;4.78;;
52866;SDS011;38739;53.324;6.862;2023-12-20T05:52:02;36.47;;;4.38;;
52866;SDS011;38739;53.324;6.862;2023-12-20T05:54:27;35.85;;;5.00;;
52866;SDS011;38739;53.324;6.862;2023-12-20T05:56:53;39.42;;;4.88;;
52866;SDS011;38739;53.324;6.862;2023-12-20T05:59:19;34.65;;;5.03;;
52866;SDS011;38739;53.324;6.862;2023-12-20T06:01:44;28.02;;;4.35;;
52866;SDS011;38739;53.324;6.862;2023-12-20T06:04:10;32.17;;;4.60;;
52866;SDS011;38739;53.324;6.862;2023-12-20T06:06:45;38.25;;;4.93;;
52866;SDS011;38739;53.324;6.862;2023-12-20T06:09:11;33.00;;;4.65;;
52866;SDS011;38739;53.324;6.862;2023-12-20T06:11:37;36.17;;;4.70;;
52866;SDS011;38739;53.324;6.862;2023-12-20T06:14:02;31.17;;;4.60;;
52866;SDS011;38739;53.324;6.862;2023-12-20T06:16:28;36.35;;;5.00;;
52866;SDS011;38739;53.324;6.862;2023-12-20T06:18:54;38.85;;;5.10;;
52866;SDS011;38739;53.324;6.862;2023-12-20T06:21:19;37.35;;;4.85;;
52866;SDS011;38739;53.324;6.862;2023-12-20T06:23:46;39.95;;;4.95;;
52866;SDS011;38739;53.324;6.862;2023-12-20T06:26:11;36.58;;;5.20;;
52866;SDS011;38739;53.324;6.862;2023-12-20T06:28:37;40.35;;;5.10;;
52866;SDS011;38739;53.324;6.862;2023-12-20T06:31:03;35.13;;;4.93;;
52866;SDS011;38739;53.324;6.862;2023-12-20T06:33:29;35.97;;;4.95;;
52866;SDS011;38739;53.324;6.862;2023-12-20T06:35:56;24.33;;;4.10;;
52866;SDS011;38739;53.324;6.862;2023-12-20T06:38:22;33.80;;;4.90;;
52866;SDS011;38739;53.324;6.862;2023-12-20T06:40:48;38.45;;;5.00;;
52866;SDS011;38739;53.324;6.862;2023-12-20T06:43:14;29.15;;;4.50;;
52866;SDS011;38739;53.324;6.862;2023-12-20T06:45:39;34.53;;;5.07;;
52866;SDS011;38739;53.324;6.862;2023-12-20T06:48:05;39.47;;;5.25;;
52866;SDS011;38739;53.324;6.862;2023-12-20T06:50:31;30.35;;;5.20;;
52866;SDS011;38739;53.324;6.862;2023-12-20T06:52:57;31.27;;;4.72;;
52866;SDS011;38739;53.324;6.862;2023-12-20T06:55:23;32.63;;;5.05;;
52866;SDS011;38739;53.324;6.862;2023-12-20T06:57:48;28.77;;;4.78;;
52866;SDS011;38739;53.324;6.862;2023-12-20T07:00:14;31.88;;;5.00;;
52866;SDS011;38739;53.324;6.862;2023-12-20T07:02:40;38.53;;;6.00;;
52866;SDS011;38739;53.324;6.862;2023-12-20T07:05:06;29.60;;;5.15;;
52866;SDS011;38739;53.324;6.862;2023-12-20T07:07:32;31.20;;;5.15;;
52866;SDS011;38739;53.324;6.862;2023-12-20T07:09:58;37.50;;;5.72;;
52866;SDS011;38739;53.324;6.862;2023-12-20T07:12:23;39.95;;;5.95;;
52866;SDS011;38739;53.324;6.862;2023-12-20T07:14:49;31.02;;;5.10;;
52866;SDS011;38739;53.324;6.862;2023-12-20T07:17:15;30.25;;;5.05;;
52866;SDS011;38739;53.324;6.862;2023-12-20T07:19:41;38.95;;;5.22;;
52866;SDS011;38739;53.324;6.862;2023-12-20T07:22:07;29.67;;;4.47;;
52866;SDS011;38739;53.324;6.862;2023-12-20T07:24:33;33.58;;;5.38;;
52866;SDS011;38739;53.324;6.862;2023-12-20T07:26:59;20.67;;;4.60;;
52866;SDS011;38739;53.324;6.862;2023-12-20T07:29:25;31.40;;;4.60;;
52866;SDS011;38739;53.324;6.862;2023-12-20T07:31:52;37.60;;;5.70;;
52866;SDS011;38739;53.324;6.862;2023-12-20T07:34:19;39.33;;;5.80;;
52866;SDS011;38739;53.324;6.862;2023-12-20T07:36:45;35.45;;;6.68;;
52866;SDS011;38739;53.324;6.862;2023-12-20T07:39:12;35.88;;;4.97;;
52866;SDS011;38739;53.324;6.862;2023-12-20T07:41:38;33.67;;;5.85;;
52866;SDS011;38739;53.324;6.862;2023-12-20T07:44:04;35.10;;;5.30;;
52866;SDS011;38739;53.324;6.862;2023-12-20T07:46:30;37.40;;;5.22;;
52866;SDS011;38739;53.324;6.862;2023-12-20T07:48:56;30.17;;;5.05;;
52866;SDS011;38739;53.324;6.862;2023-12-20T07:51:21;29.75;;;4.72;;
52866;SDS011;38739;53.324;6.862;2023-12-20T07:53:47;34.22;;;5.00;;
52866;SDS011;38739;53.324;6.862;2023-12-20T07:56:13;28.75;;;5.13;;
52866;SDS011;38739;53.324;6.862;2023-12-20T07:58:43;33.33;;;4.47;;
52866;SDS011;38739;53.324;6.862;2023-12-20T08:01:10;36.53;;;5.43;;
52866;SDS011;38739;53.324;6.862;2023-12-20T08:03:36;31.73;;;5.10;;
52866;SDS011;38739;53.324;6.862;2023-12-20T08:06:02;36.35;;;4.70;;
52866;SDS011;38739;53.324;6.862;2023-12-20T08:08:28;34.10;;;4.95;;
52866;SDS011;38739;53.324;6.862;2023-12-20T08:10:54;35.90;;;4.65;;
52866;SDS011;38739;53.324;6.862;2023-12-20T08:13:19;36.60;;;4.60;;
52866;SDS011;38739;53.324;6.862;2023-12-20T08:15:50;32.85;;;4.70;;
52866;SDS011;38739;53.324;6.862;2023-12-20T08:18:15;36.65;;;5.18;;
52866;SDS011;38739;53.324;6.862;2023-12-20T08:20:41;37.60;;;5.43;;
52866;SDS011;38739;53.324;6.862;2023-12-20T08:23:07;30.08;;;4.85;;
52866;SDS011;38739;53.324;6.862;2023-12-20T08:25:32;30.25;;;4.47;;
52866;SDS011;38739;53.324;6.862;2023-12-20T08:27:58;31.58;;;5.10;;
52866;SDS011;38739;53.324;6.862;2023-12-20T08:30:23;41.63;;;5.38;;
52866;SDS011;38739;53.324;6.862;2023-12-20T08:32:50;36.17;;;5.60;;
52866;SDS011;38739;53.324;6.862;2023-12-20T08:35:15;13.02;;;1.85;;
52866;SDS011;38739;53.324;6.862;2023-12-20T08:37:42;14.43;;;1.80;;
52866;SDS011;38739;53.324;6.862;2023-12-20T08:40:08;17.13;;;2.15;;
52866;SDS011;38739;53.324;6.862;2023-12-20T08:42:34;18.67;;;1.95;;
52866;SDS011;38739;53.324;6.862;2023-12-20T08:45:00;12.00;;;1.90;;
52866;SDS011;38739;53.324;6.862;2023-12-20T08:47:26;17.80;;;2.08;;
52866;SDS011;38739;53.324;6.862;2023-12-20T08:49:52;11.98;;;1.88;;
52866;SDS011;38739;53.324;6.862;2023-12-20T08:52:23;9.10;;;1.40;;
52866;SDS011;38739;53.324;6.862;2023-12-20T08:54:49;13.68;;;1.70;;
52866;SDS011;38739;53.324;6.862;2023-12-20T08:57:20;13.88;;;1.58;;
52866;SDS011;38739;53.324;6.862;2023-12-20T08:59:52;17.45;;;2.33;;
52866;SDS011;38739;53.324;6.862;2023-12-20T09:02:17;12.43;;;1.20;;
52866;SDS011;38739;53.324;6.862;2023-12-20T09:04:43;12.88;;;1.40;;
52866;SDS011;38739;53.324;6.862;2023-12-20T09:07:24;12.50;;;1.83;;
52866;SDS011;38739;53.324;6.862;2023-12-20T09:09:51;11.38;;;1.50;;
52866;SDS011;38739;53.324;6.862;2023-12-20T09:12:21;15.98;;;2.03;;
52866;SDS011;38739;53.324;6.862;2023-12-20T09:14:48;12.57;;;1.70;;
52866;SDS011;38739;53.324;6.862;2023-12-20T09:17:15;11.70;;;1.52;;
52866;SDS011;38739;53.324;6.862;2023-12-20T09:19:42;13.13;;;1.48;;
52866;SDS011;38739;53.324;6.862;2023-12-20T09:22:09;14.68;;;1.60;;
52866;SDS011;38739;53.324;6.862;2023-12-20T09:24:35;10.75;;;1.30;;
52866;SDS011;38739;53.324;6.862;2023-12-20T09:27:01;13.65;;;1.38;;
52866;SDS011;38739;53.324;6.862;2023-12-20T09:29:27;9.75;;;1.27;;
52866;SDS011;38739;53.324;6.862;2023-12-20T09:31:54;12.82;;;1.45;;
52866;SDS011;38739;53.324;6.862;2023-12-20T09:34:20;11.95;;;1.70;;
52866;SDS011;38739;53.324;6.862;2023-12-20T09:36:47;11.35;;;2.00;;
52866;SDS011;38739;53.324;6.862;2023-12-20T09:39:16;12.48;;;1.90;;
52866;SDS011;38739;53.324;6.862;2023-12-20T09:44:24;12.27;;;1.55;;
52866;SDS011;38739;53.324;6.862;2023-12-20T09:46:50;17.33;;;2.47;;
52866;SDS011;38739;53.324;6.862;2023-12-20T09:49:19;16.00;;;1.90;;
52866;SDS011;38739;53.324;6.862;2023-12-20T09:51:49;14.10;;;1.83;;
52866;SDS011;38739;53.324;6.862;2023-12-20T09:54:17;20.67;;;2.58;;
52866;SDS011;38739;53.324;6.862;2023-12-20T09:56:43;23.58;;;3.28;;
52866;SDS011;38739;53.324;6.862;2023-12-20T09:59:09;16.60;;;2.20;;
52866;SDS011;38739;53.324;6.862;2023-12-20T10:01:35;17.20;;;2.13;;
52866;SDS011;38739;53.324;6.862;2023-12-20T10:04:05;11.43;;;1.90;;
52866;SDS011;38739;53.324;6.862;2023-12-20T10:06:37;19.13;;;2.50;;
52866;SDS011;38739;53.324;6.862;2023-12-20T10:09:06;15.10;;;2.05;;
52866;SDS011;38739;53.324;6.862;2023-12-20T10:11:33;18.30;;;2.00;;
52866;SDS011;38739;53.324;6.862;2023-12-20T10:14:00;21.33;;;2.70;;
52866;SDS011;38739;53.324;6.862;2023-12-20T10:16:26;16.33;;;2.45;;
52866;SDS011;38739;53.324;6.862;2023-12-20T10:18:56;19.50;;;3.13;;
52866;SDS011;38739;53.324;6.862;2023-12-20T10:21:22;26.38;;;2.80;;
52866;SDS011;38739;53.324;6.862;2023-12-20T10:23:48;19.20;;;2.20;;
52866;SDS011;38739;53.324;6.862;2023-12-20T10:26:24;23.13;;;2.80;;
52866;SDS011;38739;53.324;6.862;2023-12-20T10:28:51;16.73;;;2.92;;
52866;SDS011;38739;53.324;6.862;2023-12-20T10:31:30;20.58;;;2.90;;
52866;SDS011;38739;53.324;6.862;2023-12-20T10:33:57;23.20;;;2.80;;
52866;SDS011;38739;53.324;6.862;2023-12-20T10:36:27;18.10;;;2.85;;
52866;SDS011;38739;53.324;6.862;2023-12-20T10:38:57;18.00;;;2.72;;
52866;SDS011;38739;53.324;6.862;2023-12-20T10:41:27;23.75;;;2.85;;
52866;SDS011;38739;53.324;6.862;2023-12-20T10:44:03;24.42;;;3.00;;
52866;SDS011;38739;53.324;6.862;2023-12-20T10:46:32;16.35;;;2.30;;
52866;SDS011;38739;53.324;6.862;2023-12-20T10:48:58;23.35;;;3.20;;
52866;SDS011;38739;53.324;6.862;2023-12-20T10:51:27;19.92;;;2.97;;
52866;SDS011;38739;53.324;6.862;2023-12-20T10:53:54;32.80;;;3.88;;
52866;SDS011;38739;53.324;6.862;2023-12-20T10:56:21;25.65;;;3.10;;
52866;SDS011;38739;53.324;6.862;2023-12-20T10:58:48;24.10;;;3.72;;
52866;SDS011;38739;53.324;6.862;2023-12-20T11:01:18;26.38;;;3.50;;
52866;SDS011;38739;53.324;6.862;2023-12-20T11:03:49;21.38;;;3.47;;
52866;SDS011;38739;53.324;6.862;2023-12-20T11:08:44;20.70;;;3.47;;
52866;SDS011;38739;53.324;6.862;2023-12-20T11:11:33;25.80;;;3.65;;
52866;SDS011;38739;53.324;6.862;2023-12-20T11:14:06;22.63;;;3.25;;
52866;SDS011;38739;53.324;6.862;2023-12-20T11:16:40;20.20;;;3.28;;
52866;SDS011;38739;53.324;6.862;2023-12-20T11:19:07;22.60;;;2.97;;
52866;SDS011;38739;53.324;6.862;2023-12-20T11:21:33;20.45;;;3.13;;
52866;SDS011;38739;53.324;6.862;2023-12-20T11:23:59;23.00;;;3.30;;
52866;SDS011;38739;53.324;6.862;2023-12-20T11:26:28;23.00;;;3.25;;
52866;SDS011;38739;53.324;6.862;2023-12-20T11:29:40;31.90;;;3.92;;
52866;SDS011;38739;53.324;6.862;2023-12-20T11:32:01;18.13;;;3.42;;
52866;SDS011;38739;53.324;6.862;2023-12-20T11:34:28;23.60;;;3.92;;
52866;SDS011;38739;53.324;6.862;2023-12-20T11:36:58;26.38;;;3.80;;
52866;SDS011;38739;53.324;6.862;2023-12-20T11:39:25;31.55;;;4.75;;
52866;SDS011;38739;53.324;6.862;2023-12-20T11:41:55;26.58;;;3.50;;
52866;SDS011;38739;53.324;6.862;2023-12-20T11:44:22;26.50;;;3.78;;
52866;SDS011;38739;53.324;6.862;2023-12-20T11:46:50;23.67;;;3.97;;
52866;SDS011;38739;53.324;6.862;2023-12-20T11:49:16;23.95;;;3.67;;
52866;SDS011;38739;53.324;6.862;2023-12-20T11:51:41;23.20;;;3.90;;
52866;SDS011;38739;53.324;6.862;2023-12-20T11:54:07;29.48;;;4.15;;
52866;SDS011;38739;53.324;6.862;2023-12-20T11:56:35;29.45;;;4.68;;
52866;SDS011;38739;53.324;6.862;2023-12-20T11:59:01;24.13;;;3.80;;
52866;SDS011;38739;53.324;6.862;2023-12-20T12:01:27;25.83;;;3.60;;
52866;SDS011;38739;53.324;6.862;2023-12-20T12:04:03;28.73;;;3.58;;
52866;SDS011;38739;53.324;6.862;2023-12-20T12:06:29;31.30;;;4.47;;
52866;SDS011;38739;53.324;6.862;2023-12-20T12:08:54;20.65;;;3.20;;
52866;SDS011;38739;53.324;6.862;2023-12-20T12:11:21;27.88;;;4.47;;
52866;SDS011;38739;53.324;6.862;2023-12-20T12:13:47;23.48;;;3.20;;
52866;SDS011;38739;53.324;6.862;2023-12-20T12:16:16;22.10;;;3.75;;
52866;SDS011;38739;53.324;6.862;2023-12-20T12:18:45;24.38;;;3.72;;
52866;SDS011;38739;53.324;6.862;2023-12-20T12:21:18;25.58;;;3.75;;
52866;SDS011;38739;53.324;6.862;2023-12-20T12:23:45;32.53;;;4.03;;
52866;SDS011;38739;53.324;6.862;2023-12-20T12:26:11;21.23;;;3.67;;
52866;SDS011;38739;53.324;6.862;2023-12-20T12:28:39;25.90;;;3.50;;
52866;SDS011;38739;53.324;6.862;2023-12-20T12:31:06;27.45;;;3.88;;
52866;SDS011;38739;53.324;6.862;2023-12-20T12:33:32;24.50;;;4.03;;
52866;SDS011;38739;53.324;6.862;2023-12-20T12:35:58;23.58;;;3.40;;
52866;SDS011;38739;53.324;6.862;2023-12-20T12:38:24;17.48;;;3.35;;
52866;SDS011;38739;53.324;6.862;2023-12-20T12:40:50;19.98;;;3.20;;
52866;SDS011;38739;53.324;6.862;2023-12-20T12:43:18;28.67;;;3.50;;
52866;SDS011;38739;53.324;6.862;2023-12-20T12:45:44;22.00;;;3.67;;
52866;SDS011;38739;53.324;6.862;2023-12-20T12:48:09;24.75;;;3.42;;
52866;SDS011;38739;53.324;6.862;2023-12-20T12:50:35;20.05;;;2.95;;
52866;SDS011;38739;53.324;6.862;2023-12-20T12:53:01;17.67;;;2.83;;
52866;SDS011;38739;53.324;6.862;2023-12-20T12:55:27;27.20;;;3.55;;
52866;SDS011;38739;53.324;6.862;2023-12-20T12:57:53;24.35;;;3.10;;
52866;SDS011;38739;53.324;6.862;2023-12-20T13:00:19;20.55;;;2.83;;
52866;SDS011;38739;53.324;6.862;2023-12-20T13:02:47;18.80;;;2.97;;
52866;SDS011;38739;53.324;6.862;2023-12-20T13:05:12;23.13;;;3.53;;
52866;SDS011;38739;53.324;6.862;2023-12-20T13:07:38;22.52;;;2.65;;
52866;SDS011;38739;53.324;6.862;2023-12-20T13:10:04;22.33;;;3.28;;
52866;SDS011;38739;53.324;6.862;2023-12-20T13:12:31;15.18;;;2.60;;
52866;SDS011;38739;53.324;6.862;2023-12-20T13:14:57;21.23;;;3.33;;
52866;SDS011;38739;53.324;6.862;2023-12-20T13:17:23;20.75;;;2.80;;
52866;SDS011;38739;53.324;6.862;2023-12-20T13:19:49;17.92;;;3.00;;
52866;SDS011;38739;53.324;6.862;2023-12-20T13:22:15;19.38;;;2.30;;
52866;SDS011;38739;53.324;6.862;2023-12-20T13:24:41;15.50;;;2.72;;
52866;SDS011;38739;53.324;6.862;2023-12-20T13:27:09;17.45;;;2.67;;
52866;SDS011;38739;53.324;6.862;2023-12-20T13:29:35;24.70;;;2.80;;
52866;SDS011;38739;53.324;6.862;2023-12-20T13:32:01;21.23;;;3.00;;
52866;SDS011;38739;53.324;6.862;2023-12-20T13:34:28;23.30;;;3.13;;
52866;SDS011;38739;53.324;6.862;2023-12-20T13:36:54;23.65;;;3.22;;
52866;SDS011;38739;53.324;6.862;2023-12-20T13:39:20;15.55;;;2.63;;
52866;SDS011;38739;53.324;6.862;2023-12-20T13:41:46;20.02;;;3.15;;
52866;SDS011;38739;53.324;6.862;2023-12-20T13:44:12;25.63;;;4.13;;
52866;SDS011;38739;53.324;6.862;2023-12-20T13:46:38;21.90;;;3.08;;
52866;SDS011;38739;53.324;6.862;2023-12-20T13:49:05;19.08;;;3.13;;
52866;SDS011;38739;53.324;6.862;2023-12-20T13:51:31;16.05;;;2.50;;
52866;SDS011;38739;53.324;6.862;2023-12-20T13:53:56;21.73;;;3.08;;
52866;SDS011;38739;53.324;6.862;2023-12-20T13:56:22;18.45;;;2.47;;
52866;SDS011;38739;53.324;6.862;2023-12-20T13:58:48;19.65;;;3.22;;
52866;SDS011;38739;53.324;6.862;2023-12-20T14:01:15;20.00;;;2.85;;
52866;SDS011;38739;53.324;6.862;2023-12-20T14:03:41;15.68;;;2.40;;
52866;SDS011;38739;53.324;6.862;2023-12-20T14:06:07;16.63;;;2.78;;
52866;SDS011;38739;53.324;6.862;2023-12-20T14:08:33;12.88;;;2.15;;
52866;SDS011;38739;53.324;6.862;2023-12-20T14:10:59;14.02;;;1.90;;
52866;SDS011;38739;53.324;6.862;2023-12-20T14:13:26;16.55;;;2.80;;
52866;SDS011;38739;53.324;6.862;2023-12-20T14:15:52;15.32;;;2.58;;
52866;SDS011;38739;53.324;6.862;2023-12-20T14:18:19;13.63;;;2.20;;
52866;SDS011;38739;53.324;6.862;2023-12-20T14:20:45;16.05;;;1.92;;
52866;SDS011;38739;53.324;6.862;2023-12-20T14:23:12;11.90;;;2.28;;
52866;SDS011;38739;53.324;6.862;2023-12-20T14:25:40;17.85;;;2.50;;
52866;SDS011;38739;53.324;6.862;2023-12-20T14:28:06;15.55;;;2.13;;
52866;SDS011;38739;53.324;6.862;2023-12-20T14:30:32;17.58;;;1.73;;
52866;SDS011;38739;53.324;6.862;2023-12-20T14:32:58;10.55;;;2.08;;
52866;SDS011;38739;53.324;6.862;2023-12-20T14:35:24;10.38;;;2.15;;
52866;SDS011;38739;53.324;6.862;2023-12-20T14:37:50;15.30;;;2.05;;